Featured Flight

MET2096 - Chicago to Boston

Embraer ERJ-170LR
N922AG
2 hrs 00 mins
752 nm
Scheduled - Daily

Bid/PiRep Status

Bid was submitted on January 5th, 2017 8:39 UTC.
PiRep # 74617: Approved by Sean Doyle on January 6th, 2017 8:55 UTC

Departure

Departing from
Chicago (ORD)
Departure gate
Scheduled Departure
GMT 1300
Local 0800
METAR KORD 231951Z 31008KT 10SM BKN010 BKN014 OVC160 12/09 A2969 RMK AO2 SLP054 T01220094 $
TAF KORD 232001Z 2320/2424 31010KT P6SM BKN010 OVC070 TEMPO 2321/2322 SCT010 OVC070 FM232200 30011KT P6SM SCT020 BKN200 FM240400 30014G22KT 6SM -RA SCT025 OVC035 FM240600 26012KT 4SM -RA SCT008 OVC012 FM241500 30013G24KT 5SM -SHRA SCT008 OVC012 FM241900 31015

Arrival

Arriving at
Boston (BOS)
Arrival gate
Scheduled Arrival
GMT 1500
Local 1100
METAR KBOS 231954Z 07008KT 1 1/4SM BR SCT003 BKN037 BKN250 15/14 A3024 RMK AO2 SLP240 SFC VIS 6 VIS 3/4 E-S T01500139
TAF KBOS 231920Z 2319/2424 07007KT 1 1/2SM BR BKN002 BKN250 FM232100 08007KT 1SM BR BKN003 FM240300 11008KT 1/2SM FG BKN003 FM241100 16011G19KT 1SM BR OVC008 FM241300 16014G22KT 4SM BR VCSH OVC010 FM241600 16015G24KT 6SM BR VCSH OVC025 FM241900 17016G26KT P6S

Route Map

Planning Resources

MOPER J30 ESL J34 DRUZZ RAVNN3 CSN GRAPA VOLEY DENII JANNS SEVRN GRAFE FIX 25
MOPER J30 ESL J34 DRUZZ RAVNN3 CSN CATAY TERPZ BMORE FND KEVVN TATTO FIX 25
GSH ASHEN MAYZE DJB LIVER AVERE IHD IHD53 BUFFR
GIJ J146 WOOST J34 AIR MGW LIZIO MUMSY MRB RUANE EMI STRPS DEDLE EDMEF
KMDW OXI FWA APE BUCKO ESL TRIXY AML KBWI
Route:
OFP Layout:
Units:
Detailed Navlog:
ETOPS Planning:
Plan Stepclimbs:
Runway Analysis:
Include NOTAMS:
FIR NOTAMS:
Flight Maps:

Return Flights

MET2081
Embraer ERJ-170LR
1330 GMT
MET2083
Embraer ERJ-170LR
1830 GMT
MET2085
Embraer ERJ-170LR
2330 GMT
MET2089
Embraer ERJ-170LR
1430 GMT
MET2091
Embraer ERJ-170LR
1930 GMT
MET2093
Embraer ERJ-170LR
0030 GMT
MET2097
Embraer ERJ-170LR
1530 GMT
MET2099
Embraer ERJ-170LR
2030 GMT
MET3001
Embraer ERJ-170LR
0130 GMT
MET3005
Embraer ERJ-170LR
1630 GMT
MET3007
Embraer ERJ-170LR
2130 GMT
MET3009
Embraer ERJ-170LR
0230 GMT
MET3011
Embraer ERJ-170LR
1730 GMT
MET3013
Embraer ERJ-170LR
2230 GMT
MET3015
Embraer ERJ-170LR
0330 GMT

Popularity

Hub Current Bids PiReps this month Total PiReps
KLAX 0 0 0
KBOS 0 0 1
KDFW 0 0 0